Observation data for Goodlett on 06/25/2019      Previous  Date  Next       Current Mesonet Observations  Soil Data  Daily Summary Page  Observations in Plain Language
KGDS 250500Z 11008KT 25/19 A2991 RMK A01 T02480187  RH  073%=      5-min Rain = 0
KGDS 250505Z 12007KT 25/19 A2991 RMK A01 T02480188  RH  073%=      5-min Rain = 0
KGDS 250510Z 12007KT 25/19 A2991 RMK A01 T02470189  RH  074%=      5-min Rain = 0
KGDS 250515Z 12007KT 25/19 A299 RMK A01 T02470190  RH  074%=      5-min Rain = 0
KGDS 250520Z 11007KT 25/19 A299 RMK A01 T02460191  RH  075%=      5-min Rain = 0
KGDS 250525Z 11008KT 25/19 A299 RMK A01 T02450192  RH  076%=      5-min Rain = 0
KGDS 250530Z 12008KT 25/19 A299 RMK A01 T02450193  RH  077%=      5-min Rain = 0
KGDS 250535Z 12009KT 25/19 A299 RMK A01 T02450194  RH  077%=      5-min Rain = 0
KGDS 250540Z 13010KT 25/20 A299 RMK A01 T02470195  RH  077%=      5-min Rain = 0
KGDS 250545Z 13010KT 25/20 A299 RMK A01 T02470197  RH  078%=      5-min Rain = 0
KGDS 250550Z 13009KT 25/20 A299 RMK A01 T02470197  RH  078%=      5-min Rain = 0
KGDS 250555Z 13009KT 25/20 A299 RMK A01 T02460198  RH  079%=      5-min Rain = 0
KGDS 250600Z 13010KT 25/20 A299 RMK A01 T02460198  RH  079%=      5-min Rain = 0
KGDS 250605Z 13009KT 25/20 A2989 RMK A01 T02450198  RH  080%=      5-min Rain = 0
KGDS 250610Z 12008KT 24/20 A2989 RMK A01 T02440199  RH  080%=      5-min Rain = 0
KGDS 250615Z 12008KT 24/20 A2989 RMK A01 T02430199  RH  081%=      5-min Rain = 0
KGDS 250620Z 11007KT 24/20 A2989 RMK A01 T02420199  RH  082%=      5-min Rain = 0
KGDS 250625Z 12007KT 24/20 A2989 RMK A01 T02400199  RH  082%=      5-min Rain = 0
KGDS 250630Z 11009KT 24/20 A2989 RMK A01 T02410200  RH  083%=      5-min Rain = 0
KGDS 250635Z 11009KT 24/20 A2989 RMK A01 T02410200  RH  083%=      5-min Rain = 0
KGDS 250640Z 12008KT 24/20 A299 RMK A01 T02410201  RH  083%=      5-min Rain = 0
KGDS 250645Z 12009KT 24/20 A2989 RMK A01 T02430202  RH  082%=      5-min Rain = 0
KGDS 250650Z 12009KT 24/20 A2989 RMK A01 T02430202  RH  082%=      5-min Rain = 0
KGDS 250655Z 12009KT 24/20 A2989 RMK A01 T02420202  RH  083%=      5-min Rain = 0
KGDS 250700Z 11008KT 24/20 A2989 RMK A01 T02410202  RH  083%=      5-min Rain = 0
KGDS 250705Z 12009KT 24/20 A2989 RMK A01 T02400202  RH  084%=      5-min Rain = 0
KGDS 250710Z 11008KT 24/20 A2989 RMK A01 T02390201  RH  084%=      5-min Rain = 0
KGDS 250715Z 11007KT 24/20 A2989 RMK A01 T02370201  RH  085%=      5-min Rain = 0
KGDS 250720Z 11007KT 24/20 A2989 RMK A01 T02350200  RH  086%=      5-min Rain = 0
KGDS 250725Z 11007KT 23/20 A2989 RMK A01 T02340200  RH  086%=      5-min Rain = 0
KGDS 250730Z 12007KT 23/20 A2989 RMK A01 T02330200  RH  087%=      5-min Rain = 0
KGDS 250735Z 13007KT 23/20 A2989 RMK A01 T02320200  RH  087%=      5-min Rain = 0
KGDS 250740Z 12007KT 23/20 A2989 RMK A01 T02320200  RH  087%=      5-min Rain = 0
KGDS 250745Z 12007KT 23/20 A2989 RMK A01 T02310200  RH  087%=      5-min Rain = 0
KGDS 250750Z 12007KT 23/20 A2989 RMK A01 T02300200  RH  088%=      5-min Rain = 0
KGDS 250755Z 12006KT 23/20 A2989 RMK A01 T02280199  RH  089%=      5-min Rain = 0
KGDS 250800Z 11005KT 23/20 A299 RMK A01 T02260199  RH  090%=      5-min Rain = 0
KGDS 250805Z 11005KT 23/20 A299 RMK A01 T02250198  RH  090%=      5-min Rain = 0
KGDS 250810Z 11006KT 22/20 A299 RMK A01 T02230198  RH  091%=      5-min Rain = 0
KGDS 250815Z 11006KT 22/20 A299 RMK A01 T02220198  RH  091%=      5-min Rain = 0
KGDS 250820Z 11005KT 22/20 A299 RMK A01 T02210197  RH  092%=      5-min Rain = 0
KGDS 250825Z 11005KT 22/20 A299 RMK A01 T02200197  RH  092%=      5-min Rain = 0
KGDS 250830Z 11005KT 22/20 A299 RMK A01 T02200197  RH  092%=      5-min Rain = 0
KGDS 250835Z 12005KT 22/20 A299 RMK A01 T02190197  RH  092%=      5-min Rain = 0
KGDS 250840Z 12005KT 22/20 A299 RMK A01 T02180196  RH  093%=      5-min Rain = 0
KGDS 250845Z 12005KT 22/20 A299 RMK A01 T02170196  RH  093%=      5-min Rain = 0
KGDS 250850Z 13004KT 22/20 A299 RMK A01 T02170196  RH  093%=      5-min Rain = 0
KGDS 250855Z 12004KT 22/20 A299 RMK A01 T02160196  RH  093%=      5-min Rain = 0
KGDS 250900Z 12004KT 22/20 A299 RMK A01 T02150195  RH  093%=      5-min Rain = 0
KGDS 250905Z 12004KT 21/20 A299 RMK A01 T02140195  RH  094%=      5-min Rain = 0
KGDS 250910Z 12004KT 21/19 A299 RMK A01 T02130194  RH  094%=      5-min Rain = 0
KGDS 250915Z 12003KT 21/19 A299 RMK A01 T02120194  RH  094%=      5-min Rain = 0
KGDS 250920Z 12004KT 21/19 A299 RMK A01 T02110193  RH  095%=      5-min Rain = 0
KGDS 250925Z 11003KT 21/19 A299 RMK A01 T02090192  RH  095%=      5-min Rain = 0
KGDS 250930Z 11004KT 21/19 A2991 RMK A01 T02080191  RH  095%=      5-min Rain = 0
KGDS 250935Z 11003KT 21/19 A2991 RMK A01 T02060190  RH  096%=      5-min Rain = 0
KGDS 250940Z 11003KT 21/19 A2991 RMK A01 T02060191  RH  096%=      5-min Rain = 0
KGDS 250945Z 10003KT 21/19 A2991 RMK A01 T02050190  RH  096%=      5-min Rain = 0
KGDS 250950Z 11004KT 20/19 A2991 RMK A01 T02040189  RH  096%=      5-min Rain = 0
KGDS 250955Z 11004KT 21/19 A2991 RMK A01 T02050190  RH  096%=      5-min Rain = 0
KGDS 251000Z 11004KT 21/19 A2991 RMK A01 T02050190  RH  097%=      5-min Rain = 0
KGDS 251005Z 11005KT 20/19 A2991 RMK A01 T02030189  RH  097%=      5-min Rain = 0
KGDS 251010Z 11005KT 20/19 A2991 RMK A01 T02010188  RH  097%=      5-min Rain = 0
KGDS 251015Z 11004KT 20/19 A2991 RMK A01 T02020189  RH  097%=      5-min Rain = 0
KGDS 251020Z 10005KT 20/19 A2991 RMK A01 T02010188  RH  097%=      5-min Rain = 0
KGDS 251025Z 11004KT 20/19 A2991 RMK A01 T02010188  RH  098%=      5-min Rain = 0
KGDS 251030Z 11004KT 20/19 A2991 RMK A01 T02010189  RH  098%=      5-min Rain = 0
KGDS 251035Z 11004KT 20/19 A2991 RMK A01 T02010189  RH  098%=      5-min Rain = 0
KGDS 251040Z 11004KT 20/19 A2992 RMK A01 T02010189  RH  098%=      5-min Rain = 0
KGDS 251045Z 12004KT 20/19 A2992 RMK A01 T02000188  RH  098%=      5-min Rain = 0
KGDS 251050Z 12004KT 20/19 A2992 RMK A01 T02010189  RH  098%=      5-min Rain = 0
KGDS 251055Z 12005KT 20/19 A2992 RMK A01 T02000188  RH  098%=      5-min Rain = 0
KGDS 251100Z 11005KT 20/19 A2992 RMK A01 T02010189  RH  098%=      5-min Rain = 0
KGDS 251105Z 11004KT 20/19 A2992 RMK A01 T02010189  RH  098%=      5-min Rain = 0
KGDS 251110Z 10004KT 20/19 A2993 RMK A01 T01990187  RH  098%=      5-min Rain = 0
KGDS 251115Z 09004KT 20/18 A2993 RMK A01 T01960184  RH  098%=      5-min Rain = 0
KGDS 251120Z 11005KT 19/18 A2993 RMK A01 T01940182  RH  098%=      5-min Rain = 0
KGDS 251125Z 12004KT 20/19 A2994 RMK A01 T01960185  RH  099%=      5-min Rain = 0
KGDS 251130Z 12003KT 20/19 A2993 RMK A01 T01970186  RH  099%=      5-min Rain = 0
KGDS 251135Z 11004KT 20/19 A2994 RMK A01 T01970186  RH  099%=      5-min Rain = 0
KGDS 251140Z 09003KT 20/19 A2994 RMK A01 T01960185  RH  099%=      5-min Rain = 0
KGDS 251145Z 10003KT 20/19 A2994 RMK A01 T01960185  RH  099%=      5-min Rain = 0
KGDS 251150Z 11004KT 20/19 A2994 RMK A01 T01960185  RH  099%=      5-min Rain = 0
KGDS 251155Z 13005KT 20/19 A2994 RMK A01 T01970186  RH  099%=      5-min Rain = 0
KGDS 251200Z 14006KT 20/19 A2994 RMK A01 T01990188  RH  099%=      5-min Rain = 0
KGDS 251205Z 14005KT 20/19 A2994 RMK A01 T02000189  RH  099%=      5-min Rain = 0
KGDS 251210Z 16004KT 20/19 A2994 RMK A01 T02010190  RH  099%=      5-min Rain = 0
KGDS 251215Z 17004KT 20/19 A2995 RMK A01 T02010190  RH  099%=      5-min Rain = 0
KGDS 251220Z 17003KT 20/19 A2995 RMK A01 T02010189  RH  098%=      5-min Rain = 0
KGDS 251225Z 17004KT 20/19 A2995 RMK A01 T02000188  RH  098%=      5-min Rain = 0
KGDS 251230Z 16006KT 20/19 A2995 RMK A01 T01990188  RH  099%=      5-min Rain = 0
KGDS 251235Z 15006KT 20/19 A2995 RMK A01 T01980188  RH  099%=      5-min Rain = 0
KGDS 251240Z 16006KT 20/19 A2995 RMK A01 T01990189  RH  099%=      5-min Rain = 0
KGDS 251245Z 16006KT 20/19 A2995 RMK A01 T02000190  RH  099%=      5-min Rain = 0
KGDS 251250Z 16007KT 20/19 A2996 RMK A01 T02030193  RH  099%=      5-min Rain = 0
KGDS 251255Z 15007KT 21/20 A2996 RMK A01 T02060196  RH  100%=      5-min Rain = 0
KGDS 251300Z 16008KT 21/20 A2996 RMK A01 T02070197  RH  100%=      5-min Rain = 0
KGDS 251305Z 16008KT 21/20 A2996 RMK A01 T02050195  RH  099%=      5-min Rain = 0
KGDS 251310Z 17007KT 21/20 A2996 RMK A01 T02060196  RH  099%=      5-min Rain = 0
KGDS 251315Z 17008KT 21/20 A2997 RMK A01 T02090198  RH  099%=      5-min Rain = 0
KGDS 251320Z 17008KT 21/20 A2997 RMK A01 T02110196  RH  097%=      5-min Rain = 0
KGDS 251325Z 17007KT 22/19 A2997 RMK A01 T02160194  RH  092%=      5-min Rain = 0
KGDS 251330Z 16006KT 22/19 A2997 RMK A01 T02230194  RH  089%=      5-min Rain = 0
KGDS 251335Z 17006KT 23/19 A2997 RMK A01 T02260192  RH  085%=      5-min Rain = 0
KGDS 251340Z 17005KT 23/19 A2997 RMK A01 T02300191  RH  083%=      5-min Rain = 0
KGDS 251345Z 18006KT 23/19 A2997 RMK A01 T02330186  RH  079%=      5-min Rain = 0
KGDS 251350Z 16005KT 24/19 A2997 RMK A01 T02350187  RH  078%=      5-min Rain = 0
KGDS 251355Z 15004KT 24/19 A2997 RMK A01 T02400188  RH  077%=      5-min Rain = 0
KGDS 251400Z 18005KT 25/19 A2998 RMK A01 T02450185  RH  073%=      5-min Rain = 0
KGDS 251405Z 16006KT 25/18 A2998 RMK A01 T02470181  RH  070%=      5-min Rain = 0
KGDS 251410Z 17006KT 25/18 A2997 RMK A01 T02470183  RH  071%=      5-min Rain = 0
KGDS 251415Z 16005KT 25/18 A2997 RMK A01 T02510184  RH  070%=      5-min Rain = 0
KGDS 251420Z 17006KT 26/18 A2997 RMK A01 T02550184  RH  068%=      5-min Rain = 0
KGDS 251425Z 17006KT 26/18 A2997 RMK A01 T02580184  RH  067%=      5-min Rain = 0
KGDS 251430Z 17007KT 26/18 A2998 RMK A01 T02600180  RH  065%=      5-min Rain = 0
KGDS 251435Z 17006KT 26/18 A2998 RMK A01 T02620181  RH  064%=      5-min Rain = 0
KGDS 251440Z 17006KT 27/18 A2998 RMK A01 T02650183  RH  064%=      5-min Rain = 0
KGDS 251445Z 18007KT 27/18 A2998 RMK A01 T02670178  RH  062%=      5-min Rain = 0
KGDS 251450Z 18007KT 27/18 A2997 RMK A01 T02680176  RH  060%=      5-min Rain = 0
KGDS 251455Z 19006KT 27/18 A2997 RMK A01 T02700175  RH  059%=      5-min Rain = 0
KGDS 251500Z 19005KT 27/18 A2997 RMK A01 T02740176  RH  058%=      5-min Rain = 0
KGDS 251505Z 18006KT 28/17 A2997 RMK A01 T02770172  RH  056%=      5-min Rain = 0
KGDS 251510Z 21008KT 28/17 A2997 RMK A01 T02820170  RH  053%=      5-min Rain = 0
KGDS 251515Z 22008KT 28/16 A2997 RMK A01 T02810163  RH  051%=      5-min Rain = 0
KGDS 251520Z 23007KT 29/16 A2997 RMK A01 T02860164  RH  050%=      5-min Rain = 0
KGDS 251525Z 22009G15KT 29/16 A2997 RMK A01 T02870162  RH  049%=      5-min Rain = 0
KGDS 251530Z 21010G15KT 29/16 A2997 RMK A01 T02910161  RH  048%=      5-min Rain = 0
KGDS 251535Z 22009KT 29/16 A2997 RMK A01 T02930162  RH  047%=      5-min Rain = 0
KGDS 251540Z 25009KT 29/16 A2997 RMK A01 T02910163  RH  048%=      5-min Rain = 0
KGDS 251545Z 22009KT 29/16 A2997 RMK A01 T02930164  RH  048%=      5-min Rain = 0
KGDS 251550Z 23011KT 30/16 A2996 RMK A01 T02950163  RH  047%=      5-min Rain = 0
KGDS 251555Z 22012KT 30/16 A2996 RMK A01 T02950164  RH  047%=      5-min Rain = 0
KGDS 251600Z 22009KT 30/17 A2996 RMK A01 T02980165  RH  047%=      5-min Rain = 0
KGDS 251605Z 21009KT 30/16 A2997 RMK A01 T02960163  RH  047%=      5-min Rain = 0
KGDS 251610Z 22009KT 30/16 A2997 RMK A01 T02990164  RH  046%=      5-min Rain = 0
KGDS 251615Z 23010G17KT 30/16 A2997 RMK A01 T02990164  RH  046%=      5-min Rain = 0
KGDS 251620Z 22012KT 30/16 A2996 RMK A01 T03000163  RH  046%=      5-min Rain = 0
KGDS 251625Z 23012KT 30/16 A2996 RMK A01 T03000164  RH  046%=      5-min Rain = 0
KGDS 251630Z 23011KT 30/16 A2997 RMK A01 T03010164  RH  046%=      5-min Rain = 0
KGDS 251635Z 23007KT 30/17 A2997 RMK A01 T03020165  RH  046%=      5-min Rain = 0
KGDS 251640Z 23009KT 31/17 A2997 RMK A01 T03060166  RH  045%=      5-min Rain = 0
KGDS 251645Z 22006G12KT 30/16 A2997 RMK A01 T03020164  RH  046%=      5-min Rain = 0
KGDS 251650Z 23009G14KT 30/17 A2996 RMK A01 T03040165  RH  045%=      5-min Rain = 0
KGDS 251655Z 24008KT 30/17 A2996 RMK A01 T03040167  RH  046%=      5-min Rain = 0
KGDS 251700Z 24008KT 31/17 A2996 RMK A01 T03080167  RH  045%=      5-min Rain = 0
KGDS 251705Z 25009KT 31/17 A2996 RMK A01 T03110169  RH  045%=      5-min Rain = 0
KGDS 251710Z 24004KT 31/17 A2996 RMK A01 T03090167  RH  045%=      5-min Rain = 0
KGDS 251715Z 23008KT 31/17 A2996 RMK A01 T03130169  RH  044%=      5-min Rain = 0
KGDS 251720Z 26005KT 31/17 A2996 RMK A01 T03130166  RH  043%=      5-min Rain = 0
KGDS 251725Z 26006G11KT 31/17 A2996 RMK A01 T03130170  RH  044%=      5-min Rain = 0
KGDS 251730Z 25008KT 31/17 A2996 RMK A01 T03140167  RH  043%=      5-min Rain = 0
KGDS 251735Z 25003G8KT 31/17 A2996 RMK A01 T03120167  RH  044%=      5-min Rain = 0
KGDS 251740Z 24007KT 32/17 A2996 RMK A01 T03170168  RH  043%=      5-min Rain = 0
KGDS 251745Z 22006KT 32/17 A2996 RMK A01 T03150168  RH  043%=      5-min Rain = 0
KGDS 251750Z 24005G10KT 31/17 A2996 RMK A01 T03140168  RH  044%=      5-min Rain = 0
KGDS 251755Z 24002KT 32/17 A2996 RMK A01 T03180168  RH  043%=      5-min Rain = 0
KGDS 251800Z 17002KT 32/17 A2996 RMK A01 T03210174  RH  044%=      5-min Rain = 0
KGDS 251805Z 15004KT 32/18 A2996 RMK A01 T03230176  RH  044%=      5-min Rain = 0
KGDS 251810Z 17003KT 32/17 A2996 RMK A01 T03220174  RH  043%=      5-min Rain = 0
KGDS 251815Z 18005G10KT 32/17 A2996 RMK A01 T03240172  RH  042%=      5-min Rain = 0
KGDS 251820Z 16009KT 32/17 A2996 RMK A01 T03230174  RH  043%=      5-min Rain = 0
KGDS 251825Z 16006KT 32/17 A2996 RMK A01 T03230172  RH  043%=      5-min Rain = 0
KGDS 251830Z 10004KT 32/17 A2996 RMK A01 T03220170  RH  042%=      5-min Rain = 0
KGDS 251835Z 17005G10KT 33/17 A2996 RMK A01 T03270171  RH  041%=      5-min Rain = 0
KGDS 251840Z 16006KT 33/17 A2996 RMK A01 T03280172  RH  041%=      5-min Rain = 0
KGDS 251845Z 14004KT 33/17 A2995 RMK A01 T03260174  RH  042%=      5-min Rain = 0
KGDS 251850Z 19006G11KT 33/17 A2995 RMK A01 T03270174  RH  042%=      5-min Rain = 0
KGDS 251855Z 19010KT 33/17 A2995 RMK A01 T03320173  RH  041%=      5-min Rain = 0
KGDS 251900Z 15008KT 33/17 A2995 RMK A01 T03330173  RH  041%=      5-min Rain = 0
KGDS 251905Z 14005G11KT 33/17 A2995 RMK A01 T03300170  RH  041%=      5-min Rain = 0
KGDS 251910Z 16007G13KT 33/17 A2995 RMK A01 T03310174  RH  041%=      5-min Rain = 0
KGDS 251915Z 15009G14KT 33/17 A2995 RMK A01 T03310174  RH  041%=      5-min Rain = 0
KGDS 251920Z 13009G14KT 33/17 A2995 RMK A01 T03300172  RH  041%=      5-min Rain = 0
KGDS 251925Z 15011KT 34/17 A2995 RMK A01 T03350172  RH  040%=      5-min Rain = 0
KGDS 251930Z 17006G11KT 33/17 A2995 RMK A01 T03340172  RH  040%=      5-min Rain = 0
KGDS 251935Z 15007G12KT 34/18 A2994 RMK A01 T03370176  RH  040%=      5-min Rain = 0
KGDS 251940Z 15009KT 34/18 A2994 RMK A01 T03400177  RH  040%=      5-min Rain = 0
KGDS 251945Z 12010KT 34/18 A2994 RMK A01 T03390175  RH  040%=      5-min Rain = 0
KGDS 251950Z 12010G18KT 34/18 A2994 RMK A01 T03390176  RH  040%=      5-min Rain = 0
KGDS 251955Z 15010G15KT 34/18 A2994 RMK A01 T03410175  RH  039%=      5-min Rain = 0
KGDS 252000Z 12008KT 34/17 A2994 RMK A01 T03380173  RH  039%=      5-min Rain = 0
KGDS 252005Z 15007G14KT 34/17 A2994 RMK A01 T03380171  RH  039%=      5-min Rain = 0
KGDS 252010Z 15012G19KT 34/18 A2993 RMK A01 T03400176  RH  040%=      5-min Rain = 0
KGDS 252015Z 14009G16KT 34/18 A2993 RMK A01 T03390177  RH  040%=      5-min Rain = 0
KGDS 252020Z 13011G16KT 34/18 A2993 RMK A01 T03400178  RH  040%=      5-min Rain = 0
KGDS 252025Z 15010G16KT 34/17 A2993 RMK A01 T03390173  RH  039%=      5-min Rain = 0
KGDS 252030Z 15009G15KT 34/18 A2993 RMK A01 T03380176  RH  040%=      5-min Rain = 0
KGDS 252035Z 12012G17KT 34/18 A2992 RMK A01 T03430177  RH  039%=      5-min Rain = 0
KGDS 252040Z 14014KT 34/18 A2992 RMK A01 T03430175  RH  039%=      5-min Rain = 0
KGDS 252045Z 17010G15KT 34/17 A2992 RMK A01 T03420171  RH  038%=      5-min Rain = 0
KGDS 252050Z 16013G18KT 34/17 A2992 RMK A01 T03440166  RH  037%=      5-min Rain = 0
KGDS 252055Z 16012G18KT 34/16 A2992 RMK A01 T03420162  RH  036%=      5-min Rain = 0
KGDS 252100Z 16011G18KT 35/17 A2991 RMK A01 T03450171  RH  038%=      5-min Rain = 0
KGDS 252105Z 14011KT 35/17 A2991 RMK A01 T03450171  RH  037%=      5-min Rain = 0
KGDS 252110Z 15015G21KT 34/17 A2991 RMK A01 T03420170  RH  038%=      5-min Rain = 0
KGDS 252115Z 14013G18KT 34/17 A2991 RMK A01 T03440169  RH  037%=      5-min Rain = 0
KGDS 252120Z 14012G17KT 34/17 A2991 RMK A01 T03440169  RH  037%=      5-min Rain = 0
KGDS 252125Z 14012G18KT 34/17 A2991 RMK A01 T03440168  RH  037%=      5-min Rain = 0
KGDS 252130Z 13011G19KT 34/17 A299 RMK A01 T03440171  RH  038%=      5-min Rain = 0
KGDS 252135Z 14014G20KT 35/17 A299 RMK A01 T03480168  RH  036%=      5-min Rain = 0
KGDS 252140Z 14013G18KT 35/17 A299 RMK A01 T03460165  RH  036%=      5-min Rain = 0
KGDS 252145Z 12015G20KT 34/17 A299 RMK A01 T03430167  RH  037%=      5-min Rain = 0
KGDS 252150Z 13014G19KT 34/17 A299 RMK A01 T03430172  RH  038%=      5-min Rain = 0
KGDS 252155Z 15013KT 35/17 A299 RMK A01 T03470167  RH  036%=      5-min Rain = 0
KGDS 252200Z 15015G21KT 34/17 A299 RMK A01 T03430166  RH  037%=      5-min Rain = 0
KGDS 252205Z 14013G20KT 34/17 A299 RMK A01 T03410166  RH  037%=      5-min Rain = 0
KGDS 252210Z 14014G20KT 35/16 A299 RMK A01 T03450163  RH  036%=      5-min Rain = 0
KGDS 252215Z 14014G19KT 34/16 A2989 RMK A01 T03430161  RH  035%=      5-min Rain = 0
KGDS 252220Z 14013G18KT 34/16 A2989 RMK A01 T03430162  RH  036%=      5-min Rain = 0
KGDS 252225Z 14015G22KT 34/16 A2989 RMK A01 T03430162  RH  036%=      5-min Rain = 0
KGDS 252230Z 14015KT 34/16 A2989 RMK A01 T03430158  RH  035%=      5-min Rain = 0
KGDS 252235Z 14014KT 34/16 A2989 RMK A01 T03420158  RH  035%=      5-min Rain = 0
KGDS 252240Z 16013G19KT 34/16 A2989 RMK A01 T03430158  RH  035%=      5-min Rain = 0
KGDS 252245Z 15013G18KT 34/16 A2989 RMK A01 T03430158  RH  035%=      5-min Rain = 0
KGDS 252250Z 16015G20KT 34/16 A2989 RMK A01 T03410158  RH  035%=      5-min Rain = 0
KGDS 252255Z 14014G20KT 34/16 A2989 RMK A01 T03390156  RH  035%=      5-min Rain = 0
KGDS 252300Z 14014G20KT 34/15 A2989 RMK A01 T03380153  RH  034%=      5-min Rain = 0
KGDS 252305Z 15014KT 34/15 A299 RMK A01 T03400151  RH  034%=      5-min Rain = 0
KGDS 252310Z 14013G18KT 34/15 A2989 RMK A01 T03370154  RH  035%=      5-min Rain = 0
KGDS 252315Z 15017KT 33/16 A2989 RMK A01 T03320157  RH  037%=      5-min Rain = 0
KGDS 252320Z 14013KT 33/16 A2989 RMK A01 T03340162  RH  037%=      5-min Rain = 0
KGDS 252325Z 14017KT 33/16 A2988 RMK A01 T03320162  RH  038%=      5-min Rain = 0
KGDS 252330Z 13018KT 33/17 A2988 RMK A01 T03330165  RH  039%=      5-min Rain = 0
KGDS 252335Z 14015G21KT 33/16 A2989 RMK A01 T03300164  RH  039%=      5-min Rain = 0
KGDS 252340Z 14014KT 33/17 A2989 RMK A01 T03260166  RH  040%=      5-min Rain = 0
KGDS 252345Z 14014KT 32/17 A299 RMK A01 T03240165  RH  041%=      5-min Rain = 0
KGDS 252350Z 13014G19KT 32/16 A2989 RMK A01 T03220163  RH  040%=      5-min Rain = 0
KGDS 252355Z 13014G19KT 32/16 A2989 RMK A01 T03210163  RH  041%=      5-min Rain = 0
KGDS 260000Z 13017G22KT 32/16 A2989 RMK A01 T03190162  RH  041%=      5-min Rain = 0
KGDS 260005Z 13013KT 32/16 A299 RMK A01 T03180163  RH  041%=      5-min Rain = 0
KGDS 260010Z 14012KT 32/16 A299 RMK A01 T03170163  RH  042%=      5-min Rain = 0
KGDS 260015Z 13012KT 32/16 A2991 RMK A01 T03150162  RH  042%=      5-min Rain = 0
KGDS 260020Z 13012KT 31/16 A2991 RMK A01 T03140162  RH  042%=      5-min Rain = 0
KGDS 260025Z 13009KT 31/16 A2991 RMK A01 T03120163  RH  043%=      5-min Rain = 0
KGDS 260030Z 13010KT 31/16 A2991 RMK A01 T03110164  RH  043%=      5-min Rain = 0
KGDS 260035Z 14010KT 31/16 A2991 RMK A01 T03100163  RH  043%=      5-min Rain = 0
KGDS 260040Z 14009KT 31/16 A2992 RMK A01 T03080164  RH  044%=      5-min Rain = 0
KGDS 260045Z 14009KT 31/17 A2993 RMK A01 T03070165  RH  045%=      5-min Rain = 0
KGDS 260050Z 13009KT 31/17 A2993 RMK A01 T03050165  RH  045%=      5-min Rain = 0
KGDS 260055Z 13009KT 31/17 A2993 RMK A01 T03050165  RH  045%=      5-min Rain = 0
KGDS 260100Z 12006KT 30/17 A2993 RMK A01 T03030166  RH  046%=      5-min Rain = 0
KGDS 260105Z 12006KT 30/17 A2994 RMK A01 T03000167  RH  047%=      5-min Rain = 0
KGDS 260110Z 13006KT 30/17 A2994 RMK A01 T03000167  RH  047%=      5-min Rain = 0
KGDS 260115Z 13006KT 30/17 A2995 RMK A01 T02980168  RH  048%=      5-min Rain = 0
KGDS 260120Z 13005KT 30/17 A2995 RMK A01 T02970169  RH  048%=      5-min Rain = 0
KGDS 260125Z 13005KT 30/17 A2995 RMK A01 T02960170  RH  049%=      5-min Rain = 0
KGDS 260130Z 13004KT 29/17 A2995 RMK A01 T02940171  RH  050%=      5-min Rain = 0
KGDS 260135Z 12004KT 29/17 A2996 RMK A01 T02920171  RH  051%=      5-min Rain = 0
KGDS 260140Z 12003KT 29/17 A2996 RMK A01 T02900172  RH  051%=      5-min Rain = 0
KGDS 260145Z 12002KT 29/17 A2996 RMK A01 T02880173  RH  052%=      5-min Rain = 0
KGDS 260150Z 33000KT 29/17 A2997 RMK A01 T02870173  RH  053%=      5-min Rain = 0
KGDS 260155Z 32004KT 29/18 A2999 RMK A01 T02860175  RH  054%=      5-min Rain = 0
KGDS 260200Z 31005KT 29/18 A2999 RMK A01 T02870175  RH  053%=      5-min Rain = 0
KGDS 260205Z 30005KT 29/18 A30 RMK A01 T02850175  RH  054%=      5-min Rain = 0
KGDS 260210Z 31008KT 28/18 A3002 RMK A01 T02840175  RH  054%=      5-min Rain = 0
KGDS 260215Z 31014G24KT 29/17 A3002 RMK A01 T02850170  RH  052%=      5-min Rain = 0
KGDS 260220Z 32017G24KT 29/13 A3003 RMK A01 T02880132  RH  040%=      5-min Rain = 0
KGDS 260225Z 32023G32KT 28/12 A3003 RMK A01 T02820116  RH  037%=      5-min Rain = 0
KGDS 260230Z 33023G31KT 27/12 A3003 RMK A01 T02720118  RH  040%=      5-min Rain = 0
KGDS 260235Z 33021G27KT 26/13 A3004 RMK A01 T02590130  RH  047%=      5-min Rain = 0
KGDS 260240Z 33019G26KT 24/14 A3004 RMK A01 T02400144  RH  057%=      5-min Rain = 0
KGDS 260245Z 34016KT 23/15 A3005 RMK A01 T02300148  RH  063%=      5-min Rain = 0
KGDS 260250Z 35018G23KT 23/15 A3005 RMK A01 T02250151  RH  066%=      5-min Rain = 0
KGDS 260255Z 35014G19KT 22/15 A3006 RMK A01 T02180154  RH  070%=      5-min Rain = 0.01
KGDS 260300Z 35011KT 22/16 A3005 RMK A01 T02180155  RH  070%=      5-min Rain = 0
KGDS 260305Z 00010KT 22/15 A3005 RMK A01 T02210153  RH  068%=      5-min Rain = 0
KGDS 260310Z 01010KT 22/15 A3005 RMK A01 T02220154  RH  068%=      5-min Rain = 0
KGDS 260315Z 35007KT 22/16 A3005 RMK A01 T02230156  RH  069%=      5-min Rain = 0
KGDS 260320Z 32012G19KT 23/15 A3005 RMK A01 T02320145  RH  061%=      5-min Rain = 0
KGDS 260325Z 30013G18KT 24/14 A3004 RMK A01 T02400141  RH  056%=      5-min Rain = 0
KGDS 260330Z 31012G19KT 24/14 A3005 RMK A01 T02430137  RH  054%=      5-min Rain = 0
KGDS 260335Z 31011KT 24/14 A3004 RMK A01 T02430135  RH  053%=      5-min Rain = 0
KGDS 260340Z 33009G15KT 24/14 A3004 RMK A01 T02440135  RH  053%=      5-min Rain = 0
KGDS 260345Z 07006KT 24/15 A3004 RMK A01 T02350150  RH  062%=      5-min Rain = 0
KGDS 260350Z 08008KT 23/16 A3004 RMK A01 T02250157  RH  069%=      5-min Rain = 0
KGDS 260355Z 12007KT 22/16 A3004 RMK A01 T02200164  RH  074%=      5-min Rain = 0
KGDS 260400Z 12005KT 22/16 A3004 RMK A01 T02180164  RH  075%=      5-min Rain = 0
KGDS 260405Z 12006KT 22/16 A3003 RMK A01 T02200164  RH  074%=      5-min Rain = 0
KGDS 260410Z 13005KT 22/16 A3003 RMK A01 T02210163  RH  073%=      5-min Rain = 0
KGDS 260415Z 12008KT 22/16 A3002 RMK A01 T02220162  RH  072%=      5-min Rain = 0
KGDS 260420Z 13009KT 22/16 A3002 RMK A01 T02240158  RH  070%=      5-min Rain = 0
KGDS 260425Z 12008KT 23/15 A3001 RMK A01 T02270154  RH  066%=      5-min Rain = 0
KGDS 260430Z 12009KT 23/15 A2999 RMK A01 T02280151  RH  065%=      5-min Rain = 0
KGDS 260435Z 12008KT 23/15 A2998 RMK A01 T02300147  RH  062%=      5-min Rain = 0
KGDS 260440Z 13007KT 23/14 A2998 RMK A01 T02340142  RH  059%=      5-min Rain = 0
KGDS 260445Z 16007KT 24/14 A2998 RMK A01 T02400136  RH  054%=      5-min Rain = 0
KGDS 260450Z 15009KT 24/14 A2998 RMK A01 T02420136  RH  054%=      5-min Rain = 0
KGDS 260455Z 15011KT 24/13 A2997 RMK A01 T02440132  RH  052%=      5-min Rain = 0

Page generated in 0.0094 seconds.